sensor_id;sensor_type;location;lat;lon;timestamp;temperature;humidity
802;DHT22;383;48.766;9.270;2022-09-09T00:02:18;15.70;91.80
802;DHT22;383;48.766;9.270;2022-09-09T00:04:52;15.70;92.00
802;DHT22;383;48.766;9.270;2022-09-09T00:07:34;15.70;91.80
802;DHT22;383;48.766;9.270;2022-09-09T00:10:16;15.70;91.90
802;DHT22;383;48.766;9.270;2022-09-09T00:12:53;15.60;92.30
802;DHT22;383;48.766;9.270;2022-09-09T00:15:24;15.60;92.20
802;DHT22;383;48.766;9.270;2022-09-09T00:17:55;15.60;92.20
802;DHT22;383;48.766;9.270;2022-09-09T00:20:29;15.60;92.30
802;DHT22;383;48.766;9.270;2022-09-09T00:23:03;15.60;92.20
802;DHT22;383;48.766;9.270;2022-09-09T00:25:37;15.50;92.60
802;DHT22;383;48.766;9.270;2022-09-09T00:28:13;15.40;93.10
802;DHT22;383;48.766;9.270;2022-09-09T00:30:43;15.40;93.30
802;DHT22;383;48.766;9.270;2022-09-09T00:33:15;15.40;93.40
802;DHT22;383;48.766;9.270;2022-09-09T00:35:46;15.50;93.00
802;DHT22;383;48.766;9.270;2022-09-09T00:38:15;15.50;93.10
802;DHT22;383;48.766;9.270;2022-09-09T00:40:50;15.50;93.20
802;DHT22;383;48.766;9.270;2022-09-09T00:43:27;15.60;93.50
802;DHT22;383;48.766;9.270;2022-09-09T00:46:25;15.60;93.40
802;DHT22;383;48.766;9.270;2022-09-09T00:49:00;15.60;93.20
802;DHT22;383;48.766;9.270;2022-09-09T00:51:39;15.60;93.00
802;DHT22;383;48.766;9.270;2022-09-09T00:54:37;15.70;93.30
802;DHT22;383;48.766;9.270;2022-09-09T00:57:18;15.70;93.50
802;DHT22;383;48.766;9.270;2022-09-09T00:59:51;15.80;93.60
802;DHT22;383;48.766;9.270;2022-09-09T01:02:27;15.80;93.40
802;DHT22;383;48.766;9.270;2022-09-09T01:04:57;15.90;93.20
802;DHT22;383;48.766;9.270;2022-09-09T01:07:25;16.00;92.80
802;DHT22;383;48.766;9.270;2022-09-09T01:09:55;16.00;92.80
802;DHT22;383;48.766;9.270;2022-09-09T01:12:33;16.00;92.80
802;DHT22;383;48.766;9.270;2022-09-09T01:15:10;16.00;92.80
802;DHT22;383;48.766;9.270;2022-09-09T01:17:46;16.10;92.40
802;DHT22;383;48.766;9.270;2022-09-09T01:20:18;16.20;91.60
802;DHT22;383;48.766;9.270;2022-09-09T01:22:57;16.20;91.50
802;DHT22;383;48.766;9.270;2022-09-09T01:25:29;16.20;91.20
802;DHT22;383;48.766;9.270;2022-09-09T01:28:01;16.20;91.10
802;DHT22;383;48.766;9.270;2022-09-09T01:30:30;16.10;91.60
802;DHT22;383;48.766;9.270;2022-09-09T01:32:59;16.00;91.70
802;DHT22;383;48.766;9.270;2022-09-09T01:35:36;16.00;91.80
802;DHT22;383;48.766;9.270;2022-09-09T01:38:04;16.00;92.40
802;DHT22;383;48.766;9.270;2022-09-09T01:40:31;16.00;92.40
802;DHT22;383;48.766;9.270;2022-09-09T01:43:00;16.00;92.10
802;DHT22;383;48.766;9.270;2022-09-09T01:45:26;16.00;92.20
802;DHT22;383;48.766;9.270;2022-09-09T01:47:53;16.10;91.90
802;DHT22;383;48.766;9.270;2022-09-09T01:50:21;16.10;91.00
802;DHT22;383;48.766;9.270;2022-09-09T01:52:51;16.10;91.00
802;DHT22;383;48.766;9.270;2022-09-09T01:55:30;16.10;90.60
802;DHT22;383;48.766;9.270;2022-09-09T01:58:10;16.10;90.20
802;DHT22;383;48.766;9.270;2022-09-09T02:00:43;16.10;89.90
802;DHT22;383;48.766;9.270;2022-09-09T02:03:21;16.00;89.70
802;DHT22;383;48.766;9.270;2022-09-09T02:05:56;15.90;90.50
802;DHT22;383;48.766;9.270;2022-09-09T02:08:31;15.90;90.70
802;DHT22;383;48.766;9.270;2022-09-09T02:11:03;15.80;91.00
802;DHT22;383;48.766;9.270;2022-09-09T02:16:04;15.90;91.10
802;DHT22;383;48.766;9.270;2022-09-09T02:18:36;15.90;91.10
802;DHT22;383;48.766;9.270;2022-09-09T02:21:05;15.80;91.50
802;DHT22;383;48.766;9.270;2022-09-09T02:23:34;15.80;91.10
802;DHT22;383;48.766;9.270;2022-09-09T02:26:02;15.80;90.80
802;DHT22;383;48.766;9.270;2022-09-09T02:28:31;15.80;90.40
802;DHT22;383;48.766;9.270;2022-09-09T02:31:02;15.80;90.70
802;DHT22;383;48.766;9.270;2022-09-09T02:33:33;15.60;90.90
802;DHT22;383;48.766;9.270;2022-09-09T02:36:02;15.60;90.70
802;DHT22;383;48.766;9.270;2022-09-09T02:38:35;15.60;90.60
802;DHT22;383;48.766;9.270;2022-09-09T02:41:04;15.50;91.00
802;DHT22;383;48.766;9.270;2022-09-09T02:43:32;15.40;91.20
802;DHT22;383;48.766;9.270;2022-09-09T02:46:06;15.50;91.30
802;DHT22;383;48.766;9.270;2022-09-09T02:48:38;15.50;91.10
802;DHT22;383;48.766;9.270;2022-09-09T02:51:15;15.40;91.40
802;DHT22;383;48.766;9.270;2022-09-09T02:53:50;15.30;91.60
802;DHT22;383;48.766;9.270;2022-09-09T02:56:26;15.30;91.80
802;DHT22;383;48.766;9.270;2022-09-09T02:58:54;15.30;91.90
802;DHT22;383;48.766;9.270;2022-09-09T03:01:23;15.10;92.30
802;DHT22;383;48.766;9.270;2022-09-09T03:03:49;15.10;92.40
802;DHT22;383;48.766;9.270;2022-09-09T03:06:16;15.10;92.40
802;DHT22;383;48.766;9.270;2022-09-09T03:08:43;15.10;92.50
802;DHT22;383;48.766;9.270;2022-09-09T03:11:09;15.00;92.60
802;DHT22;383;48.766;9.270;2022-09-09T03:13:36;15.00;92.70
802;DHT22;383;48.766;9.270;2022-09-09T03:16:04;15.10;92.90
802;DHT22;383;48.766;9.270;2022-09-09T03:18:32;15.10;92.60
802;DHT22;383;48.766;9.270;2022-09-09T03:20:59;15.10;92.30
802;DHT22;383;48.766;9.270;2022-09-09T03:23:26;15.20;92.60
802;DHT22;383;48.766;9.270;2022-09-09T03:25:53;15.20;92.90
802;DHT22;383;48.766;9.270;2022-09-09T03:28:22;15.20;93.20
802;DHT22;383;48.766;9.270;2022-09-09T03:30:58;15.20;93.70
802;DHT22;383;48.766;9.270;2022-09-09T03:33:25;15.20;93.90
802;DHT22;383;48.766;9.270;2022-09-09T03:35:53;15.20;93.70
802;DHT22;383;48.766;9.270;2022-09-09T03:38:22;15.30;93.00
802;DHT22;383;48.766;9.270;2022-09-09T03:40:50;15.20;93.20
802;DHT22;383;48.766;9.270;2022-09-09T03:43:17;15.30;92.80
802;DHT22;383;48.766;9.270;2022-09-09T03:45:45;15.20;93.10
802;DHT22;383;48.766;9.270;2022-09-09T03:48:12;15.30;92.70
802;DHT22;383;48.766;9.270;2022-09-09T03:50:39;15.30;92.50
802;DHT22;383;48.766;9.270;2022-09-09T03:53:11;15.30;92.60
802;DHT22;383;48.766;9.270;2022-09-09T03:55:38;15.40;92.40
802;DHT22;383;48.766;9.270;2022-09-09T03:58:07;15.40;92.30
802;DHT22;383;48.766;9.270;2022-09-09T04:00:34;15.50;91.80
802;DHT22;383;48.766;9.270;2022-09-09T04:03:00;15.50;91.60
802;DHT22;383;48.766;9.270;2022-09-09T04:05:28;15.60;91.20
802;DHT22;383;48.766;9.270;2022-09-09T04:07:55;15.60;91.40
802;DHT22;383;48.766;9.270;2022-09-09T04:10:23;15.60;91.50
802;DHT22;383;48.766;9.270;2022-09-09T04:12:49;15.70;91.50
802;DHT22;383;48.766;9.270;2022-09-09T04:15:16;15.70;91.80
802;DHT22;383;48.766;9.270;2022-09-09T04:17:44;15.60;92.10
802;DHT22;383;48.766;9.270;2022-09-09T04:20:10;15.60;92.10
802;DHT22;383;48.766;9.270;2022-09-09T04:22:37;15.70;91.60
802;DHT22;383;48.766;9.270;2022-09-09T04:25:05;15.60;91.70
802;DHT22;383;48.766;9.270;2022-09-09T04:27:33;15.50;91.90
802;DHT22;383;48.766;9.270;2022-09-09T04:30:00;15.50;91.80
802;DHT22;383;48.766;9.270;2022-09-09T04:32:27;15.50;91.60
802;DHT22;383;48.766;9.270;2022-09-09T04:34:53;15.50;91.90
802;DHT22;383;48.766;9.270;2022-09-09T04:37:20;15.50;91.80
802;DHT22;383;48.766;9.270;2022-09-09T04:39:47;15.50;92.20
802;DHT22;383;48.766;9.270;2022-09-09T04:42:13;15.60;92.10
802;DHT22;383;48.766;9.270;2022-09-09T04:44:43;15.60;91.90
802;DHT22;383;48.766;9.270;2022-09-09T04:47:10;15.60;91.60
802;DHT22;383;48.766;9.270;2022-09-09T04:49:37;15.70;91.50
802;DHT22;383;48.766;9.270;2022-09-09T04:52:04;15.70;91.40
802;DHT22;383;48.766;9.270;2022-09-09T04:54:31;15.80;91.10
802;DHT22;383;48.766;9.270;2022-09-09T04:56:58;15.80;91.00
802;DHT22;383;48.766;9.270;2022-09-09T04:59:24;15.80;91.60
802;DHT22;383;48.766;9.270;2022-09-09T05:01:52;15.80;92.40
802;DHT22;383;48.766;9.270;2022-09-09T05:04:20;15.80;92.20
802;DHT22;383;48.766;9.270;2022-09-09T05:06:47;15.80;92.50
802;DHT22;383;48.766;9.270;2022-09-09T05:09:13;15.80;92.80
802;DHT22;383;48.766;9.270;2022-09-09T05:11:40;15.80;91.80
802;DHT22;383;48.766;9.270;2022-09-09T05:14:07;15.70;92.40
802;DHT22;383;48.766;9.270;2022-09-09T05:16:33;15.70;92.70
802;DHT22;383;48.766;9.270;2022-09-09T05:19:01;15.70;92.30
802;DHT22;383;48.766;9.270;2022-09-09T05:21:29;15.70;92.80
802;DHT22;383;48.766;9.270;2022-09-09T05:23:56;15.70;92.50
802;DHT22;383;48.766;9.270;2022-09-09T05:26:23;15.70;92.90
802;DHT22;383;48.766;9.270;2022-09-09T05:28:50;15.80;92.80
802;DHT22;383;48.766;9.270;2022-09-09T05:31:18;15.80;91.80
802;DHT22;383;48.766;9.270;2022-09-09T05:33:46;15.90;91.30
802;DHT22;383;48.766;9.270;2022-09-09T05:36:16;15.90;91.50
802;DHT22;383;48.766;9.270;2022-09-09T05:38:43;16.00;91.20
802;DHT22;383;48.766;9.270;2022-09-09T05:41:11;16.00;91.30
802;DHT22;383;48.766;9.270;2022-09-09T05:43:41;16.20;90.80
802;DHT22;383;48.766;9.270;2022-09-09T05:46:11;16.20;90.90
802;DHT22;383;48.766;9.270;2022-09-09T05:48:39;16.30;90.70
802;DHT22;383;48.766;9.270;2022-09-09T05:51:07;16.40;90.10
802;DHT22;383;48.766;9.270;2022-09-09T05:53:35;16.50;89.80
802;DHT22;383;48.766;9.270;2022-09-09T05:56:04;16.50;90.10
802;DHT22;383;48.766;9.270;2022-09-09T05:58:31;16.60;89.90
802;DHT22;383;48.766;9.270;2022-09-09T06:01:02;16.70;89.70
802;DHT22;383;48.766;9.270;2022-09-09T06:03:29;16.80;88.80
802;DHT22;383;48.766;9.270;2022-09-09T06:05:58;16.90;88.50
802;DHT22;383;48.766;9.270;2022-09-09T06:08:25;17.00;89.30
802;DHT22;383;48.766;9.270;2022-09-09T06:10:53;17.00;88.80
802;DHT22;383;48.766;9.270;2022-09-09T06:13:21;17.10;88.10
802;DHT22;383;48.766;9.270;2022-09-09T06:15:49;17.20;87.30
802;DHT22;383;48.766;9.270;2022-09-09T06:18:16;17.30;86.70
802;DHT22;383;48.766;9.270;2022-09-09T06:20:52;17.40;86.30
802;DHT22;383;48.766;9.270;2022-09-09T06:23:19;17.40;86.40
802;DHT22;383;48.766;9.270;2022-09-09T06:25:46;17.40;85.90
802;DHT22;383;48.766;9.270;2022-09-09T06:28:15;17.50;85.70
802;DHT22;383;48.766;9.270;2022-09-09T06:30:42;17.50;85.20
802;DHT22;383;48.766;9.270;2022-09-09T06:33:10;17.60;86.10
802;DHT22;383;48.766;9.270;2022-09-09T06:35:36;17.70;84.90
802;DHT22;383;48.766;9.270;2022-09-09T06:38:03;17.80;84.80
802;DHT22;383;48.766;9.270;2022-09-09T06:40:31;17.90;84.40
802;DHT22;383;48.766;9.270;2022-09-09T06:42:59;18.00;83.70
802;DHT22;383;48.766;9.270;2022-09-09T06:45:28;18.10;84.00
802;DHT22;383;48.766;9.270;2022-09-09T06:47:55;18.10;83.70
802;DHT22;383;48.766;9.270;2022-09-09T06:50:22;18.10;83.90
802;DHT22;383;48.766;9.270;2022-09-09T06:52:49;18.20;84.80
802;DHT22;383;48.766;9.270;2022-09-09T06:55:16;18.40;84.30
802;DHT22;383;48.766;9.270;2022-09-09T06:57:43;18.50;83.20
802;DHT22;383;48.766;9.270;2022-09-09T07:00:11;18.60;82.00
802;DHT22;383;48.766;9.270;2022-09-09T07:02:40;18.70;82.30
802;DHT22;383;48.766;9.270;2022-09-09T07:05:08;18.80;82.20
802;DHT22;383;48.766;9.270;2022-09-09T07:07:35;18.90;82.20
802;DHT22;383;48.766;9.270;2022-09-09T07:10:02;19.10;81.60
802;DHT22;383;48.766;9.270;2022-09-09T07:12:30;19.20;81.00
802;DHT22;383;48.766;9.270;2022-09-09T07:14:57;19.30;81.40
802;DHT22;383;48.766;9.270;2022-09-09T07:17:23;19.40;81.20
802;DHT22;383;48.766;9.270;2022-09-09T07:19:52;19.50;80.60
802;DHT22;383;48.766;9.270;2022-09-09T07:22:19;19.60;80.40
802;DHT22;383;48.766;9.270;2022-09-09T07:24:46;19.80;78.60
802;DHT22;383;48.766;9.270;2022-09-09T07:27:13;19.90;79.10
802;DHT22;383;48.766;9.270;2022-09-09T07:29:40;20.00;78.70
802;DHT22;383;48.766;9.270;2022-09-09T07:32:07;20.10;78.60
802;DHT22;383;48.766;9.270;2022-09-09T07:34:33;20.30;78.20
802;DHT22;383;48.766;9.270;2022-09-09T07:37:01;20.30;78.30
802;DHT22;383;48.766;9.270;2022-09-09T07:39:28;20.40;77.50
802;DHT22;383;48.766;9.270;2022-09-09T07:41:55;20.40;77.30
802;DHT22;383;48.766;9.270;2022-09-09T07:44:24;20.40;77.30
802;DHT22;383;48.766;9.270;2022-09-09T07:46:52;20.40;77.00
802;DHT22;383;48.766;9.270;2022-09-09T07:49:19;20.40;76.70
802;DHT22;383;48.766;9.270;2022-09-09T07:51:46;20.50;77.40
802;DHT22;383;48.766;9.270;2022-09-09T07:54:17;20.50;77.80
802;DHT22;383;48.766;9.270;2022-09-09T07:56:46;20.60;76.60
802;DHT22;383;48.766;9.270;2022-09-09T07:59:13;20.70;76.70
802;DHT22;383;48.766;9.270;2022-09-09T08:01:42;20.70;76.30
802;DHT22;383;48.766;9.270;2022-09-09T08:04:10;20.80;76.20
802;DHT22;383;48.766;9.270;2022-09-09T08:06:42;20.70;76.10
802;DHT22;383;48.766;9.270;2022-09-09T08:09:10;20.70;76.60
802;DHT22;383;48.766;9.270;2022-09-09T08:11:39;20.60;77.00
802;DHT22;383;48.766;9.270;2022-09-09T08:14:07;20.70;76.90
802;DHT22;383;48.766;9.270;2022-09-09T08:16:35;20.70;76.50
802;DHT22;383;48.766;9.270;2022-09-09T08:19:03;20.70;76.50
802;DHT22;383;48.766;9.270;2022-09-09T08:21:32;20.80;76.20
802;DHT22;383;48.766;9.270;2022-09-09T08:24:01;20.70;75.60
802;DHT22;383;48.766;9.270;2022-09-09T08:26:29;20.70;76.10
802;DHT22;383;48.766;9.270;2022-09-09T08:28:59;20.70;77.00
802;DHT22;383;48.766;9.270;2022-09-09T08:31:28;20.80;76.90
802;DHT22;383;48.766;9.270;2022-09-09T08:33:56;20.80;76.90
802;DHT22;383;48.766;9.270;2022-09-09T08:36:24;20.90;76.50
802;DHT22;383;48.766;9.270;2022-09-09T08:38:53;20.90;75.70
802;DHT22;383;48.766;9.270;2022-09-09T08:41:34;21.00;75.20
802;DHT22;383;48.766;9.270;2022-09-09T08:44:07;21.10;74.10
802;DHT22;383;48.766;9.270;2022-09-09T08:46:42;21.20;74.00
802;DHT22;383;48.766;9.270;2022-09-09T08:49:23;21.10;73.70
802;DHT22;383;48.766;9.270;2022-09-09T08:51:54;21.30;73.60
802;DHT22;383;48.766;9.270;2022-09-09T08:54:23;21.40;73.30
802;DHT22;383;48.766;9.270;2022-09-09T08:56:50;21.60;72.00
802;DHT22;383;48.766;9.270;2022-09-09T08:59:19;21.70;72.60
802;DHT22;383;48.766;9.270;2022-09-09T09:02:00;21.90;71.90
802;DHT22;383;48.766;9.270;2022-09-09T09:04:52;22.00;70.80
802;DHT22;383;48.766;9.270;2022-09-09T09:07:32;21.90;69.30
802;DHT22;383;48.766;9.270;2022-09-09T09:10:08;22.00;68.80
802;DHT22;383;48.766;9.270;2022-09-09T09:12:40;22.00;69.30
802;DHT22;383;48.766;9.270;2022-09-09T09:15:15;22.20;69.10
802;DHT22;383;48.766;9.270;2022-09-09T09:17:44;22.40;68.00
802;DHT22;383;48.766;9.270;2022-09-09T09:20:13;22.70;67.50
802;DHT22;383;48.766;9.270;2022-09-09T09:22:45;23.00;65.80
802;DHT22;383;48.766;9.270;2022-09-09T09:25:17;23.40;65.20
802;DHT22;383;48.766;9.270;2022-09-09T09:27:52;23.60;64.60
802;DHT22;383;48.766;9.270;2022-09-09T09:30:28;23.90;62.30
802;DHT22;383;48.766;9.270;2022-09-09T09:32:58;23.90;61.30
802;DHT22;383;48.766;9.270;2022-09-09T09:35:26;23.90;61.40
802;DHT22;383;48.766;9.270;2022-09-09T09:37:53;23.80;61.70
802;DHT22;383;48.766;9.270;2022-09-09T09:40:21;23.50;61.90
802;DHT22;383;48.766;9.270;2022-09-09T09:42:51;23.10;65.10
802;DHT22;383;48.766;9.270;2022-09-09T09:45:28;22.60;68.00
802;DHT22;383;48.766;9.270;2022-09-09T09:48:01;22.30;71.50
802;DHT22;383;48.766;9.270;2022-09-09T09:50:28;22.00;72.10
802;DHT22;383;48.766;9.270;2022-09-09T09:52:58;21.80;69.10
802;DHT22;383;48.766;9.270;2022-09-09T09:55:26;21.80;70.00
802;DHT22;383;48.766;9.270;2022-09-09T09:58:01;21.80;68.90
802;DHT22;383;48.766;9.270;2022-09-09T10:00:29;21.70;69.90
802;DHT22;383;48.766;9.270;2022-09-09T10:02:56;21.80;70.40
802;DHT22;383;48.766;9.270;2022-09-09T10:05:24;21.80;70.50
802;DHT22;383;48.766;9.270;2022-09-09T10:08:01;21.90;69.60
802;DHT22;383;48.766;9.270;2022-09-09T10:10:45;22.00;72.00
802;DHT22;383;48.766;9.270;2022-09-09T10:13:18;22.00;70.30
802;DHT22;383;48.766;9.270;2022-09-09T10:15:58;22.10;71.10
802;DHT22;383;48.766;9.270;2022-09-09T10:18:39;22.10;70.70
802;DHT22;383;48.766;9.270;2022-09-09T10:21:16;22.00;70.30
802;DHT22;383;48.766;9.270;2022-09-09T10:23:58;22.20;70.30
802;DHT22;383;48.766;9.270;2022-09-09T10:26:35;22.20;70.30
802;DHT22;383;48.766;9.270;2022-09-09T10:29:24;22.40;69.60
802;DHT22;383;48.766;9.270;2022-09-09T10:32:10;22.40;66.00
802;DHT22;383;48.766;9.270;2022-09-09T10:34:56;22.50;64.60
802;DHT22;383;48.766;9.270;2022-09-09T10:37:40;22.70;64.90
802;DHT22;383;48.766;9.270;2022-09-09T10:40:20;22.80;65.80
802;DHT22;383;48.766;9.270;2022-09-09T10:42:50;23.00;65.40
802;DHT22;383;48.766;9.270;2022-09-09T10:45:18;23.10;65.60
802;DHT22;383;48.766;9.270;2022-09-09T10:48:01;23.20;66.00
802;DHT22;383;48.766;9.270;2022-09-09T10:50:42;23.30;64.50
802;DHT22;383;48.766;9.270;2022-09-09T10:53:17;23.30;63.80
802;DHT22;383;48.766;9.270;2022-09-09T10:55:51;23.40;62.30
802;DHT22;383;48.766;9.270;2022-09-09T10:58:23;23.50;62.70
802;DHT22;383;48.766;9.270;2022-09-09T11:00:54;23.70;63.90
802;DHT22;383;48.766;9.270;2022-09-09T11:03:26;24.10;61.00
802;DHT22;383;48.766;9.270;2022-09-09T11:05:57;24.40;60.00
802;DHT22;383;48.766;9.270;2022-09-09T11:08:26;24.60;60.90
802;DHT22;383;48.766;9.270;2022-09-09T11:10:58;24.90;59.30
802;DHT22;383;48.766;9.270;2022-09-09T11:13:32;25.00;57.80
802;DHT22;383;48.766;9.270;2022-09-09T11:16:05;25.10;57.70
802;DHT22;383;48.766;9.270;2022-09-09T11:18:41;25.00;58.30
802;DHT22;383;48.766;9.270;2022-09-09T11:21:15;25.10;58.10
802;DHT22;383;48.766;9.270;2022-09-09T11:23:48;25.00;57.70
802;DHT22;383;48.766;9.270;2022-09-09T11:26:21;25.00;57.20
802;DHT22;383;48.766;9.270;2022-09-09T11:29:04;25.10;57.80
802;DHT22;383;48.766;9.270;2022-09-09T11:31:44;25.00;59.30
802;DHT22;383;48.766;9.270;2022-09-09T11:34:32;25.00;58.50
802;DHT22;383;48.766;9.270;2022-09-09T11:37:11;25.00;58.00
802;DHT22;383;48.766;9.270;2022-09-09T11:39:51;24.80;56.00
802;DHT22;383;48.766;9.270;2022-09-09T11:42:22;24.40;53.80
802;DHT22;383;48.766;9.270;2022-09-09T11:44:50;23.80;55.50
802;DHT22;383;48.766;9.270;2022-09-09T11:47:21;23.40;59.80
802;DHT22;383;48.766;9.270;2022-09-09T11:49:51;22.80;65.50
802;DHT22;383;48.766;9.270;2022-09-09T11:52:22;22.20;65.00
802;DHT22;383;48.766;9.270;2022-09-09T11:54:51;22.10;68.40
802;DHT22;383;48.766;9.270;2022-09-09T11:57:25;22.00;67.50
802;DHT22;383;48.766;9.270;2022-09-09T11:59:54;22.10;65.80
802;DHT22;383;48.766;9.270;2022-09-09T12:02:23;22.10;62.30
802;DHT22;383;48.766;9.270;2022-09-09T12:04:58;22.30;61.00
802;DHT22;383;48.766;9.270;2022-09-09T12:07:32;22.30;59.70
802;DHT22;383;48.766;9.270;2022-09-09T12:10:04;22.50;60.80
802;DHT22;383;48.766;9.270;2022-09-09T12:12:33;22.70;59.60
802;DHT22;383;48.766;9.270;2022-09-09T12:15:17;22.60;56.60
802;DHT22;383;48.766;9.270;2022-09-09T12:17:48;22.70;58.50
802;DHT22;383;48.766;9.270;2022-09-09T12:20:19;23.10;58.00
802;DHT22;383;48.766;9.270;2022-09-09T12:23:02;23.40;56.40
802;DHT22;383;48.766;9.270;2022-09-09T12:25:39;23.60;56.50
802;DHT22;383;48.766;9.270;2022-09-09T12:28:13;23.50;55.70
802;DHT22;383;48.766;9.270;2022-09-09T12:30:46;23.60;56.40
802;DHT22;383;48.766;9.270;2022-09-09T12:33:18;23.80;54.70
802;DHT22;383;48.766;9.270;2022-09-09T12:35:53;23.90;53.30
802;DHT22;383;48.766;9.270;2022-09-09T12:38:28;23.90;52.80
802;DHT22;383;48.766;9.270;2022-09-09T12:40:58;24.00;52.10
802;DHT22;383;48.766;9.270;2022-09-09T12:43:27;23.90;52.60
802;DHT22;383;48.766;9.270;2022-09-09T12:45:56;24.00;53.00
802;DHT22;383;48.766;9.270;2022-09-09T12:48:29;24.00;53.30
802;DHT22;383;48.766;9.270;2022-09-09T12:50:58;24.10;51.80
802;DHT22;383;48.766;9.270;2022-09-09T12:53:28;24.40;52.00
802;DHT22;383;48.766;9.270;2022-09-09T12:55:57;24.60;51.40
802;DHT22;383;48.766;9.270;2022-09-09T12:58:25;24.90;51.20
802;DHT22;383;48.766;9.270;2022-09-09T13:00:54;25.00;50.20
802;DHT22;383;48.766;9.270;2022-09-09T13:03:22;25.20;49.40
802;DHT22;383;48.766;9.270;2022-09-09T13:05:50;25.30;50.50
802;DHT22;383;48.766;9.270;2022-09-09T13:08:19;25.40;50.40
802;DHT22;383;48.766;9.270;2022-09-09T13:10:49;25.50;50.50
802;DHT22;383;48.766;9.270;2022-09-09T13:13:21;25.60;49.80
802;DHT22;383;48.766;9.270;2022-09-09T13:15:50;25.30;49.20
802;DHT22;383;48.766;9.270;2022-09-09T13:18:21;24.90;51.20
802;DHT22;383;48.766;9.270;2022-09-09T13:20:48;24.80;51.20
802;DHT22;383;48.766;9.270;2022-09-09T13:23:16;24.70;51.90
802;DHT22;383;48.766;9.270;2022-09-09T13:25:55;24.60;52.60
802;DHT22;383;48.766;9.270;2022-09-09T13:28:23;24.90;52.40
802;DHT22;383;48.766;9.270;2022-09-09T13:30:58;24.90;51.30
802;DHT22;383;48.766;9.270;2022-09-09T13:33:31;25.00;50.90
802;DHT22;383;48.766;9.270;2022-09-09T13:36:00;25.20;50.00
802;DHT22;383;48.766;9.270;2022-09-09T13:38:30;25.40;49.40
802;DHT22;383;48.766;9.270;2022-09-09T13:41:00;25.50;49.50
802;DHT22;383;48.766;9.270;2022-09-09T13:43:30;25.50;49.30
802;DHT22;383;48.766;9.270;2022-09-09T13:45:59;25.50;49.00
802;DHT22;383;48.766;9.270;2022-09-09T13:48:26;25.60;49.00
802;DHT22;383;48.766;9.270;2022-09-09T13:50:55;25.60;49.30
802;DHT22;383;48.766;9.270;2022-09-09T13:53:22;25.50;48.70
802;DHT22;383;48.766;9.270;2022-09-09T13:55:48;25.40;48.70
802;DHT22;383;48.766;9.270;2022-09-09T13:58:18;25.20;49.80
802;DHT22;383;48.766;9.270;2022-09-09T14:00:45;25.10;49.80
802;DHT22;383;48.766;9.270;2022-09-09T14:03:12;25.00;50.30
802;DHT22;383;48.766;9.270;2022-09-09T14:05:39;25.20;51.00
802;DHT22;383;48.766;9.270;2022-09-09T14:08:07;25.40;49.30
802;DHT22;383;48.766;9.270;2022-09-09T14:10:34;25.40;49.80
802;DHT22;383;48.766;9.270;2022-09-09T14:13:02;25.20;49.90
802;DHT22;383;48.766;9.270;2022-09-09T14:15:30;24.90;50.90
802;DHT22;383;48.766;9.270;2022-09-09T14:17:57;24.90;50.50
802;DHT22;383;48.766;9.270;2022-09-09T14:20:24;25.20;51.00
802;DHT22;383;48.766;9.270;2022-09-09T14:22:51;25.40;49.20
802;DHT22;383;48.766;9.270;2022-09-09T14:25:18;25.40;49.00
802;DHT22;383;48.766;9.270;2022-09-09T14:27:45;25.50;49.50
802;DHT22;383;48.766;9.270;2022-09-09T14:30:12;25.50;49.20
802;DHT22;383;48.766;9.270;2022-09-09T14:32:40;25.30;48.80
802;DHT22;383;48.766;9.270;2022-09-09T14:35:07;25.40;48.30
802;DHT22;383;48.766;9.270;2022-09-09T14:37:34;25.50;47.10
802;DHT22;383;48.766;9.270;2022-09-09T14:40:01;25.50;48.40
802;DHT22;383;48.766;9.270;2022-09-09T14:42:28;25.50;47.60
802;DHT22;383;48.766;9.270;2022-09-09T14:44:55;25.50;47.40
802;DHT22;383;48.766;9.270;2022-09-09T14:47:22;25.60;47.70
802;DHT22;383;48.766;9.270;2022-09-09T14:49:50;25.60;47.20
802;DHT22;383;48.766;9.270;2022-09-09T14:52:17;25.50;45.50
802;DHT22;383;48.766;9.270;2022-09-09T14:54:44;25.30;46.80
802;DHT22;383;48.766;9.270;2022-09-09T14:57:10;25.10;46.90
802;DHT22;383;48.766;9.270;2022-09-09T14:59:37;24.90;47.80
802;DHT22;383;48.766;9.270;2022-09-09T15:02:04;24.60;48.30
802;DHT22;383;48.766;9.270;2022-09-09T15:04:31;24.60;48.60
802;DHT22;383;48.766;9.270;2022-09-09T15:06:59;24.60;47.90
802;DHT22;383;48.766;9.270;2022-09-09T15:09:25;24.60;48.20
802;DHT22;383;48.766;9.270;2022-09-09T15:11:52;24.50;48.20
802;DHT22;383;48.766;9.270;2022-09-09T15:14:19;24.50;48.60
802;DHT22;383;48.766;9.270;2022-09-09T15:16:46;24.60;48.70
802;DHT22;383;48.766;9.270;2022-09-09T15:19:12;24.80;48.90
802;DHT22;383;48.766;9.270;2022-09-09T15:21:39;25.00;47.80
802;DHT22;383;48.766;9.270;2022-09-09T15:24:07;25.00;47.70
802;DHT22;383;48.766;9.270;2022-09-09T15:26:35;24.90;48.10
802;DHT22;383;48.766;9.270;2022-09-09T15:29:04;24.70;48.30
802;DHT22;383;48.766;9.270;2022-09-09T15:31:31;24.50;49.00
802;DHT22;383;48.766;9.270;2022-09-09T15:33:59;24.20;49.70
802;DHT22;383;48.766;9.270;2022-09-09T15:36:28;24.00;50.00
802;DHT22;383;48.766;9.270;2022-09-09T15:38:55;23.90;50.70
802;DHT22;383;48.766;9.270;2022-09-09T15:41:24;23.80;50.70
802;DHT22;383;48.766;9.270;2022-09-09T15:43:52;23.80;51.00
802;DHT22;383;48.766;9.270;2022-09-09T15:46:24;23.80;50.80
802;DHT22;383;48.766;9.270;2022-09-09T15:48:53;23.80;51.00
802;DHT22;383;48.766;9.270;2022-09-09T15:51:20;23.80;51.50
802;DHT22;383;48.766;9.270;2022-09-09T15:53:47;23.80;50.90
802;DHT22;383;48.766;9.270;2022-09-09T15:56:14;23.80;51.90
802;DHT22;383;48.766;9.270;2022-09-09T15:58:42;23.80;52.10
802;DHT22;383;48.766;9.270;2022-09-09T16:01:10;23.70;52.00
802;DHT22;383;48.766;9.270;2022-09-09T16:03:39;23.60;51.80
802;DHT22;383;48.766;9.270;2022-09-09T16:06:07;23.40;51.60
802;DHT22;383;48.766;9.270;2022-09-09T16:08:34;23.20;52.00
802;DHT22;383;48.766;9.270;2022-09-09T16:11:06;23.10;52.30
802;DHT22;383;48.766;9.270;2022-09-09T16:13:34;22.90;52.80
802;DHT22;383;48.766;9.270;2022-09-09T16:16:03;22.80;53.00
802;DHT22;383;48.766;9.270;2022-09-09T16:18:35;22.80;53.10
802;DHT22;383;48.766;9.270;2022-09-09T16:21:03;22.70;53.40
802;DHT22;383;48.766;9.270;2022-09-09T16:23:30;22.80;53.60
802;DHT22;383;48.766;9.270;2022-09-09T16:25:58;22.70;53.40
802;DHT22;383;48.766;9.270;2022-09-09T16:28:24;22.70;53.60
802;DHT22;383;48.766;9.270;2022-09-09T16:30:51;22.60;53.10
802;DHT22;383;48.766;9.270;2022-09-09T16:33:20;22.50;53.50
802;DHT22;383;48.766;9.270;2022-09-09T16:35:47;22.50;53.90
802;DHT22;383;48.766;9.270;2022-09-09T16:38:15;22.50;54.10
802;DHT22;383;48.766;9.270;2022-09-09T16:40:42;22.40;54.40
802;DHT22;383;48.766;9.270;2022-09-09T16:43:08;22.40;54.10
802;DHT22;383;48.766;9.270;2022-09-09T16:45:41;22.30;54.50
802;DHT22;383;48.766;9.270;2022-09-09T16:48:08;22.30;55.40
802;DHT22;383;48.766;9.270;2022-09-09T16:50:36;22.30;55.10
802;DHT22;383;48.766;9.270;2022-09-09T16:53:04;22.30;55.10
802;DHT22;383;48.766;9.270;2022-09-09T16:55:38;22.20;56.10
802;DHT22;383;48.766;9.270;2022-09-09T16:58:05;22.00;57.60